Time;durP1;ratioP1;P1;durP2;ratioP2;P2;SDS_P1;SDS_P2;PMS_P1;PMS_P2;Temp;Humidity;BMP_temperature;BMP_pressure;BME280_temperature;BME280_humidity;BME280_pressure;Samples;Min_cycle;Max_cycle;Signal;HPM_P1;HPM_P2
2023/01/04 00:01:51;;;;;;;9.02;2.67;;;;;;;12.44;80.79;99502.69;5015737;28;20077;-54
2023/01/04 00:04:18;;;;;;;3.75;2.03;;;;;;;12.46;81.42;99500.88;5019461;28;20050;-56
2023/01/04 00:06:44;;;;;;;3.00;2.08;;;;;;;12.42;81.84;99479.34;5021471;28;20453;-52
2023/01/04 00:09:11;;;;;;;5.05;2.05;;;;;;;12.47;80.92;99497.44;5021710;28;20099;-53
2023/01/04 00:11:38;;;;;;;2.55;1.33;;;;;;;12.48;81.32;99504.34;5020656;28;20076;-55
2023/01/04 00:14:04;;;;;;;5.18;1.85;;;;;;;12.50;80.53;99507.75;5026440;28;20134;-54
2023/01/04 00:16:31;;;;;;;4.40;2.30;;;;;;;12.48;81.15;99504.34;5021930;28;20571;-53
2023/01/04 00:18:57;;;;;;;2.72;1.77;;;;;;;12.48;80.34;99509.53;5022715;28;20553;-54
2023/01/04 00:21:27;;;;;;;2.95;2.75;;;;;;;12.50;81.45;99507.75;5020982;28;20042;-54
2023/01/04 00:23:56;;;;;;;3.92;2.05;;;;;;;12.49;80.81;99516.41;5011407;28;20837;-53
2023/01/04 00:26:27;;;;;;;3.55;1.67;;;;;;;12.52;80.47;99508.56;5021271;28;20079;-55
2023/01/04 00:28:57;;;;;;;2.92;1.90;;;;;;;12.49;80.60;99505.19;5020653;28;20050;-55
2023/01/04 00:31:24;;;;;;;;;;;;;;;12.40;80.80;99495.84;5036946;28;20033;-54
2023/01/04 00:33:54;;;;;;;4.72;2.17;;;;;;;12.49;80.04;99485.25;5022718;28;19948;-55
2023/01/04 00:36:21;;;;;;;3.47;1.67;;;;;;;12.49;81.10;99487.84;5020644;28;20537;-55
2023/01/04 00:39:05;;;;;;;4.57;2.15;;;;;;;12.51;80.52;99486.09;5029140;28;20092;-52
2023/01/04 00:44:13;;;;;;;2.92;1.38;;;;;;;12.46;81.37;99480.13;5018470;28;20388;-56
2023/01/04 00:46:40;;;;;;;1.52;0.75;;;;;;;12.48;81.13;99483.56;4996206;28;20046;-55
2023/01/04 00:49:08;;;;;;;1.83;0.20;;;;;;;12.47;81.41;99474.91;4995619;28;20060;-56
2023/01/04 00:51:36;;;;;;;5.93;0.80;;;;;;;12.48;81.27;99467.97;4992673;28;20050;-56
2023/01/04 00:54:05;;;;;;;3.50;0.57;;;;;;;12.44;80.83;99476.72;4992012;28;20050;-52
2023/01/04 00:56:33;;;;;;;2.38;0.30;;;;;;;12.46;81.32;99474.91;4989573;28;20556;-56
2023/01/04 00:59:02;;;;;;;5.35;0.20;;;;;;;12.49;81.48;99482.66;4994447;28;20136;-55
2023/01/04 01:01:30;;;;;;;0.88;0.22;;;;;;;12.50;81.12;99486.97;4992364;28;20093;-55
2023/01/04 01:04:00;;;;;;;1.48;0.50;;;;;;;12.45;81.57;99494.84;5000015;28;20105;-55
2023/01/04 01:06:28;;;;;;;2.47;0.30;;;;;;;12.46;81.32;99506.09;4996386;28;20061;-55
2023/01/04 01:08:56;;;;;;;2.08;0.40;;;;;;;12.45;81.71;99504.38;4994589;28;20804;-56
2023/01/04 01:11:23;;;;;;;1.55;0.35;;;;;;;12.45;82.05;99502.66;4994083;28;20082;-55
2023/01/04 01:13:50;;;;;;;2.38;0.50;;;;;;;12.46;81.65;99506.09;4995573;28;20050;-55
2023/01/04 01:16:20;;;;;;;1.13;0.28;;;;;;;12.46;81.78;99480.97;5000933;28;20096;-52
2023/01/04 01:19:07;;;;;;;2.80;0.60;;;;;;;12.42;80.94;99474.13;4999221;28;20053;-55
2023/01/04 01:21:34;;;;;;;0.73;0.28;;;;;;;12.42;80.94;99462.88;4996225;28;20046;-55
2023/01/04 01:24:00;;;;;;;0.73;0.15;;;;;;;12.40;81.67;99465.50;5000200;28;20128;-55
2023/01/04 01:26:27;;;;;;;0.45;0.15;;;;;;;12.40;81.23;99469.88;4998555;28;20046;-55
2023/01/04 01:28:54;;;;;;;1.77;0.45;;;;;;;12.37;81.60;99480.31;5000462;28;20069;-54
2023/01/04 01:31:23;;;;;;;2.53;0.65;;;;;;;12.41;81.36;99488.03;4999286;28;20481;-55
2023/01/04 01:33:53;;;;;;;2.15;0.35;;;;;;;12.42;80.91;99491.44;4999549;28;20050;-57
2023/01/04 01:36:21;;;;;;;0.95;0.52;;;;;;;12.40;81.58;99486.28;4991666;28;20104;-57
2023/01/04 01:38:48;;;;;;;2.47;0.55;;;;;;;12.41;81.41;99481.97;4993385;28;20461;-55
2023/01/04 01:41:23;;;;;;;1.17;0.40;;;;;;;12.39;81.95;99494.13;4993208;28;20617;-54
2023/01/04 01:49:31;;;;;;;1.42;0.43;;;;;;;12.38;80.95;99467.28;5049226;27;20394;-54
2023/01/04 01:52:02;;;;;;;0.77;0.52;;;;;;;12.39;81.25;99449.97;4995871;28;20104;-57
2023/01/04 01:54:33;;;;;;;0.82;0.20;;;;;;;12.34;82.10;99427.53;4997495;28;20042;-54
2023/01/04 01:57:03;;;;;;;2.08;0.43;;;;;;;12.37;81.42;99417.97;4995659;28;20103;-55
2023/01/04 01:59:33;;;;;;;1.58;0.40;;;;;;;12.37;81.26;99397.22;5004423;28;20046;-55
2023/01/04 02:01:59;;;;;;;1.13;0.40;;;;;;;12.37;81.82;99443.94;4997413;28;20100;-52
2023/01/04 02:04:26;;;;;;;1.40;1.20;;;;;;;12.33;82.95;99451.78;5009229;28;20894;-52
2023/01/04 02:06:56;;;;;;;0.65;0.38;;;;;;;12.28;81.66;99440.66;4993942;28;20062;-54
2023/01/04 02:09:23;;;;;;;0.50;0.22;;;;;;;12.32;82.41;99425.84;4995874;28;20042;-55
2023/01/04 02:11:50;;;;;;;0.50;0.20;;;;;;;12.26;82.05;99424.22;4998351;28;20380;-55
2023/01/04 02:14:26;;;;;;;0.70;0.25;;;;;;;12.30;82.95;99438.88;4997279;28;20141;-54
2023/01/04 02:22:55;;;;;;;1.60;1.20;;;;;;;12.24;82.59;99475.34;5056043;28;20414;-55
2023/01/04 02:44:58;;;;;;;0.55;0.20;;;;;;;12.32;83.01;99454.41;5007953;28;20407;-56
2023/01/04 02:53:05;;;;;;;2.15;0.30;;;;;;;12.28;82.69;99469.22;5089037;27;20410;-54
2023/01/04 03:06:46;;;;;;;0.52;0.35;;;;;;;12.29;82.71;99468.31;5097032;27;20135;-52
2023/01/04 03:09:21;;;;;;;2.03;0.35;;;;;;;12.27;82.13;99464.03;5056052;28;20103;-55
2023/01/04 03:14:50;;;;;;;0.22;0.15;;;;;;;12.29;81.75;99468.31;5059556;28;20105;-54
2023/01/04 03:17:20;;;;;;;0.60;0.57;;;;;;;12.30;82.28;99464.84;5068383;28;20045;-53
2023/01/04 03:19:50;;;;;;;1.17;0.52;;;;;;;12.30;82.28;99462.22;5077228;28;20179;-56
2023/01/04 03:53:51;;;;;;;1.23;0.55;;;;;;;12.34;83.20;99461.28;5023974;28;20413;-53
2023/01/04 03:56:21;;;;;;;1.08;0.30;;;;;;;12.31;83.34;99461.38;5023313;28;20533;-54
2023/01/04 03:58:49;;;;;;;1.38;0.30;;;;;;;12.25;84.35;99466.66;5032802;28;20106;-54
2023/01/04 04:01:19;;;;;;;0.95;0.82;;;;;;;12.24;84.37;99462.38;5033360;28;20166;-55
2023/01/04 04:09:19;;;;;;;0.73;0.38;;;;;;;12.24;83.16;99469.28;5032609;28;20467;-54
2023/01/04 04:11:46;;;;;;;1.75;0.50;;;;;;;12.20;83.21;99468.50;5034690;28;20052;-54
2023/01/04 04:14:13;;;;;;;2.00;0.30;;;;;;;12.26;83.57;99467.53;5038321;28;20099;-54
2023/01/04 04:16:40;;;;;;;0.73;0.20;;;;;;;12.17;83.58;99458.19;5032533;28;20685;-55
2023/01/04 04:19:07;;;;;;;2.08;0.30;;;;;;;12.23;84.49;99468.47;5038025;28;20115;-53
2023/01/04 04:21:34;;;;;;;1.02;0.52;;;;;;;12.25;84.10;99474.47;5030030;28;20144;-55
2023/01/04 04:24:01;;;;;;;1.13;0.28;;;;;;;12.27;83.75;99474.44;5034540;28;20080;-54
2023/01/04 04:26:28;;;;;;;1.70;0.75;;;;;;;12.25;83.61;99471.88;5039287;28;20501;-54
2023/01/04 04:28:55;;;;;;;0.52;0.45;;;;;;;12.25;83.61;99456.28;5036625;28;20110;-52
2023/01/04 04:31:21;;;;;;;0.32;0.25;;;;;;;12.29;83.38;99470.91;5032220;28;20095;-51
2023/01/04 04:33:48;;;;;;;0.80;0.30;;;;;;;12.29;83.86;99470.91;5037590;28;20399;-52
2023/01/04 04:36:15;;;;;;;3.55;0.90;;;;;;;12.28;83.21;99476.13;5039208;28;20437;-54
2023/01/04 04:38:41;;;;;;;0.63;0.63;;;;;;;12.30;83.77;99475.22;5036968;28;20079;-55
2023/01/04 04:43:58;;;;;;;0.50;0.20;;;;;;;12.26;83.68;99445.00;5032828;28;20049;-54
2023/01/04 04:46:25;;;;;;;0.90;0.45;;;;;;;12.28;83.81;99458.84;5032987;28;20041;-55
2023/01/04 04:48:52;;;;;;;0.45;0.45;;;;;;;12.28;84.41;99471.81;5032395;28;20484;-55
2023/01/04 04:51:19;;;;;;;1.90;0.40;;;;;;;12.32;82.98;99477.78;5038397;28;20484;-53
2023/01/04 04:53:46;;;;;;;0.55;0.28;;;;;;;12.33;83.59;99482.13;5029182;28;20045;-54
2023/01/04 04:56:12;;;;;;;0.50;0.20;;;;;;;12.33;82.72;99484.72;5035187;28;20588;-55
2023/01/04 04:58:40;;;;;;;0.85;0.65;;;;;;;12.33;84.13;99493.34;5034719;28;20103;-55
2023/01/04 05:01:07;;;;;;;0.57;0.57;;;;;;;12.33;83.05;99488.16;5037020;28;20131;-55
2023/01/04 05:03:34;;;;;;;0.75;0.13;;;;;;;12.34;83.08;99487.25;5034286;28;20064;-55
2023/01/04 05:06:01;;;;;;;0.35;0.22;;;;;;;12.34;84.06;99484.66;5022553;28;20049;-53
2023/01/04 05:08:28;;;;;;;0.25;0.25;;;;;;;12.37;83.64;99501.09;5022850;28;20091;-55
2023/01/04 05:10:55;;;;;;;1.13;0.57;;;;;;;12.37;82.56;99504.53;5023089;28;20103;-52
2023/01/04 05:13:21;;;;;;;0.45;0.43;;;;;;;12.34;82.90;99489.84;5027670;28;20049;-54
2023/01/04 05:15:51;;;;;;;0.38;0.38;;;;;;;12.37;83.59;99491.56;5022102;28;20143;-54
2023/01/04 05:18:20;;;;;;;0.60;0.60;;;;;;;12.34;83.30;99484.66;5025552;28;20125;-55
2023/01/04 05:20:47;;;;;;;0.35;0.35;;;;;;;12.38;83.88;99495.00;5054956;28;20119;-55
2023/01/04 05:23:16;;;;;;;0.68;0.68;;;;;;;12.37;82.34;99496.75;5023726;28;20091;-54
2023/01/04 05:25:43;;;;;;;0.57;0.20;;;;;;;12.38;83.86;99495.00;5025471;28;20142;-54
2023/01/04 05:28:10;;;;;;;1.40;0.55;;;;;;;12.36;82.67;99496.78;5022942;28;20104;-53
2023/01/04 05:30:54;;;;;;;0.65;0.65;;;;;;;12.40;82.80;99501.03;5025453;28;20540;-54
2023/01/04 05:36:01;;;;;;;0.35;0.20;;;;;;;12.40;82.77;99495.84;5017406;28;20404;-55
2023/01/04 05:38:29;;;;;;;0.30;0.30;;;;;;;12.39;82.72;99499.31;4994617;28;20084;-55
2023/01/04 05:40:56;;;;;;;2.47;0.20;;;;;;;12.39;83.57;99494.13;5000240;28;20833;-56
2023/01/04 05:43:23;;;;;;;0.95;0.30;;;;;;;12.41;82.72;99492.34;5036868;28;20074;-55
2023/01/04 05:45:53;;;;;;;1.27;0.25;;;;;;;12.40;83.24;99495.84;4999772;28;20050;-53
2023/01/04 05:48:21;;;;;;;1.10;0.73;;;;;;;12.39;82.66;99484.59;5012039;28;20080;-55
2023/01/04 05:50:48;;;;;;;0.40;0.40;;;;;;;12.38;83.39;99498.47;5006337;28;20753;-55
2023/01/04 05:53:17;;;;;;;1.95;0.55;;;;;;;12.36;83.32;99499.38;5035468;28;20186;-53
2023/01/04 05:55:44;;;;;;;1.80;0.35;;;;;;;12.34;82.78;99502.84;5003273;28;20129;-55
2023/01/04 05:58:11;;;;;;;2.85;0.20;;;;;;;12.27;83.18;99510.78;5004332;28;20592;-52
2023/01/04 06:00:38;;;;;;;0.40;0.30;;;;;;;12.33;82.96;99513.28;4997187;28;20077;-57
2023/01/04 06:03:05;;;;;;;0.40;0.40;;;;;;;12.32;83.56;99509.81;5000242;28;20514;-53
2023/01/04 06:05:32;;;;;;;1.75;0.25;;;;;;;12.30;83.30;99515.94;5006342;28;20104;-55
2023/01/04 06:07:59;;;;;;;0.47;0.47;;;;;;;12.32;83.45;99525.41;4999244;28;20824;-56
2023/01/04 06:10:26;;;;;;;0.85;0.22;;;;;;;12.29;83.70;99520.25;4998100;28;20415;-55
2023/01/04 06:12:53;;;;;;;0.55;0.55;;;;;;;12.30;84.16;99516.75;4999401;28;20058;-56
2023/01/04 06:15:19;;;;;;;0.95;0.30;;;;;;;12.25;82.78;99516.00;5005255;28;20077;-54
2023/01/04 06:17:46;;;;;;;2.08;0.65;;;;;;;12.25;84.17;99512.53;4999483;28;20490;-55
2023/01/04 06:20:13;;;;;;;2.55;0.43;;;;;;;12.20;82.74;99504.84;4994997;28;20058;-56
2023/01/04 06:22:40;;;;;;;1.17;0.22;;;;;;;12.17;83.04;99510.97;5003279;28;20058;-55
2023/01/04 06:25:08;;;;;;;0.63;0.30;;;;;;;12.16;82.52;99505.78;4994878;28;20054;-53
2023/01/04 06:27:35;;;;;;;0.68;0.30;;;;;;;12.12;84.07;99502.38;4998217;28;20081;-55
2023/01/04 06:30:03;;;;;;;2.67;0.80;;;;;;;12.13;82.99;99503.25;5002955;28;20127;-52
2023/01/04 06:32:30;;;;;;;1.80;0.60;;;;;;;12.10;82.70;99495.50;5002787;28;20477;-54
2023/01/04 06:34:56;;;;;;;10.00;3.75;;;;;;;12.11;82.81;99505.00;4999708;28;20066;-55
2023/01/04 06:37:23;;;;;;;4.38;1.67;;;;;;;12.11;82.59;99492.03;5004071;28;20171;-54
2023/01/04 06:39:50;;;;;;;1.65;0.90;;;;;;;12.09;83.17;99494.66;5000663;28;20066;-54
2023/01/04 06:45:04;;;;;;;11.57;4.38;;;;;;;12.06;83.36;99498.16;4998691;28;20442;-54
2023/01/04 06:47:30;;;;;;;2.40;0.80;;;;;;;12.05;83.07;99498.16;4989375;28;20160;-55
2023/01/04 06:49:57;;;;;;;0.88;0.40;;;;;;;12.03;82.63;99507.72;4984309;28;20042;-54
2023/01/04 06:52:23;;;;;;;1.40;0.70;;;;;;;12.01;83.03;99512.94;4986873;28;20136;-55
2023/01/04 06:54:50;;;;;;;2.92;0.80;;;;;;;11.96;82.67;99514.75;4987640;28;20050;-56
2023/01/04 06:57:17;;;;;;;1.58;0.40;;;;;;;11.93;83.68;99520.00;4987691;28;20050;-54
2023/01/04 06:59:44;;;;;;;2.83;0.70;;;;;;;11.91;82.66;99519.16;4989864;28;20042;-55
2023/01/04 07:02:13;;;;;;;5.95;1.10;;;;;;;11.89;83.26;99515.75;4984612;28;20046;-55
2023/01/04 07:04:41;;;;;;;5.88;0.95;;;;;;;11.81;83.80;99503.75;4982816;28;20231;-54
2023/01/04 07:07:09;;;;;;;3.10;0.68;;;;;;;11.85;82.51;99511.50;4994743;28;20049;-55
2023/01/04 07:09:35;;;;;;;1.75;0.47;;;;;;;11.81;83.35;99508.94;4990922;28;20051;-54
2023/01/04 07:12:02;;;;;;;3.97;1.38;;;;;;;11.79;83.75;99509.84;4978662;28;20050;-55
2023/01/04 07:14:29;;;;;;;5.00;2.38;;;;;;;11.75;82.65;99506.44;4982396;28;20452;-54
2023/01/04 07:16:56;;;;;;;4.53;1.30;;;;;;;11.75;82.69;99524.59;4987612;28;20096;-55
2023/01/04 07:19:22;;;;;;;4.05;1.48;;;;;;;11.73;83.47;99526.38;4986149;28;20050;-55
2023/01/04 07:21:49;;;;;;;2.67;0.73;;;;;;;11.68;83.06;99529.03;4988378;28;20121;-55
2023/01/04 07:24:15;;;;;;;2.08;0.70;;;;;;;11.67;82.70;99531.66;4989716;28;20050;-54
2023/01/04 07:26:42;;;;;;;1.83;0.40;;;;;;;11.64;82.26;99531.69;4980354;28;20078;-53
2023/01/04 07:29:13;;;;;;;2.80;0.30;;;;;;;11.63;83.24;99542.94;4982370;28;20054;-54
2023/01/04 07:31:40;;;;;;;2.78;0.55;;;;;;;11.60;82.49;99535.22;4981566;28;20046;-55
2023/01/04 07:34:07;;;;;;;2.45;0.50;;;;;;;11.60;82.26;99535.22;4989088;28;20538;-54
2023/01/04 07:36:33;;;;;;;1.17;0.50;;;;;;;11.60;83.35;99525.69;4984334;28;20104;-55
2023/01/04 07:39:01;;;;;;;3.15;0.55;;;;;;;11.59;82.55;99528.31;4988336;28;20426;-55
2023/01/04 07:41:27;;;;;;;3.55;0.50;;;;;;;11.59;83.49;99536.09;4983727;28;20490;-54
2023/01/04 07:43:54;;;;;;;6.22;0.70;;;;;;;11.56;83.26;99535.25;4982873;28;20050;-56
2023/01/04 07:46:21;;;;;;;5.32;1.38;;;;;;;11.56;83.22;99545.63;4987547;28;20418;-54
2023/01/04 07:48:47;;;;;;;7.80;1.30;;;;;;;11.53;82.56;99543.09;4990977;28;20065;-52
2023/01/04 07:51:14;;;;;;;5.30;0.50;;;;;;;11.53;82.76;99545.69;4985837;28;20146;-54
2023/01/04 07:53:41;;;;;;;4.35;0.40;;;;;;;11.54;82.99;99551.72;4987352;28;20054;-56
2023/01/04 07:56:08;;;;;;;3.88;0.50;;;;;;;11.54;82.67;99556.91;4990614;28;20046;-53
2023/01/04 07:58:43;;;;;;;4.53;0.77;;;;;;;11.52;82.05;99546.56;4986974;28;20142;-54
2023/01/04 08:01:14;;;;;;;4.68;0.70;;;;;;;11.53;83.00;99556.06;4980688;28;20108;-54
2023/01/04 08:03:40;;;;;;;4.15;0.98;;;;;;;11.48;82.37;99563.03;4986587;28;20046;-53
2023/01/04 08:06:10;;;;;;;8.38;0.77;;;;;;;11.51;82.26;99557.81;4984551;28;20070;-55
2023/01/04 08:08:37;;;;;;;8.80;1.10;;;;;;;11.51;82.89;99564.72;4992291;28;20046;-54
2023/01/04 08:11:07;;;;;;;6.30;1.27;;;;;;;11.54;82.30;99562.97;4984564;28;20070;-54
2023/01/04 08:13:33;;;;;;;6.20;1.38;;;;;;;11.54;83.26;99560.38;4994866;28;20097;-54
2023/01/04 08:16:00;;;;;;;9.43;0.98;;;;;;;11.55;81.72;99562.06;4982864;28;20046;-51
2023/01/04 08:18:27;;;;;;;6.07;0.63;;;;;;;11.56;82.46;99561.19;4982970;28;20466;-53
2023/01/04 08:21:09;;;;;;;4.88;0.95;;;;;;;11.52;82.01;99566.47;4981729;28;20109;-53
2023/01/04 08:23:36;;;;;;;3.72;0.60;;;;;;;11.52;82.73;99564.72;4980128;28;20074;-55
2023/01/04 08:26:09;;;;;;;6.22;0.60;;;;;;;11.52;82.26;99564.72;4981684;28;20093;-50
2023/01/04 08:28:36;;;;;;;5.53;1.00;;;;;;;11.54;81.28;99567.28;4997956;28;20050;-52
2023/01/04 08:31:06;;;;;;;7.47;0.98;;;;;;;11.51;82.51;99578.56;4982752;28;20053;-51
2023/01/04 08:33:35;;;;;;;4.47;1.17;;;;;;;11.48;81.18;99583.78;4981740;28;20077;-55
2023/01/04 08:36:07;;;;;;;8.52;1.23;;;;;;;11.47;82.07;99579.50;5001523;28;20109;-54
2023/01/04 08:38:34;;;;;;;6.22;0.93;;;;;;;11.45;81.30;99578.63;4982682;28;20066;-54
2023/01/04 08:41:20;;;;;;;6.35;1.25;;;;;;;11.45;81.67;99578.63;4979674;28;20046;-53
2023/01/04 08:44:07;;;;;;;6.18;1.52;;;;;;;11.46;80.73;99585.56;5002870;28;20052;-52
2023/01/04 08:46:33;;;;;;;5.93;1.27;;;;;;;11.50;81.28;99588.94;4987672;28;20076;-54
2023/01/04 08:49:00;;;;;;;4.78;0.75;;;;;;;11.50;80.84;99587.22;4987782;28;20105;-54
2023/01/04 08:51:26;;;;;;;8.30;1.23;;;;;;;11.53;81.06;99591.50;4985682;28;20078;-54
2023/01/04 08:53:53;;;;;;;7.95;1.40;;;;;;;11.52;80.67;99595.81;4986285;28;20450;-55
2023/01/04 08:56:20;;;;;;;9.05;1.10;;;;;;;11.50;81.69;99595.00;4985603;28;20070;-55
2023/01/04 08:58:46;;;;;;;6.70;1.30;;;;;;;11.50;81.36;99597.59;4991026;28;20080;-54
2023/01/04 09:01:13;;;;;;;3.85;1.10;;;;;;;11.51;81.59;99594.13;4985754;28;20548;-54
2023/01/04 09:03:40;;;;;;;8.70;1.65;;;;;;;11.51;80.15;99596.72;4988201;28;20046;-55
2023/01/04 09:06:10;;;;;;;8.05;0.90;;;;;;;11.49;80.83;99593.31;4986852;28;20043;-53
2023/01/04 09:08:38;;;;;;;8.27;1.23;;;;;;;11.47;80.85;99592.44;4982787;28;20054;-54
2023/01/04 09:11:07;;;;;;;11.18;1.92;;;;;;;11.49;81.17;99595.91;4984370;28;20050;-56
2023/01/04 09:13:35;;;;;;;8.02;1.42;;;;;;;11.50;79.83;99596.72;4983761;28;20078;-55
2023/01/04 09:16:03;;;;;;;9.48;1.80;;;;;;;11.52;79.87;99595.00;4988552;28;20061;-53
2023/01/04 09:18:30;;;;;;;7.43;1.52;;;;;;;11.60;81.03;99600.06;5006273;28;20086;-53
2023/01/04 09:21:03;;;;;;;7.97;0.93;;;;;;;11.65;79.51;99595.69;4986168;28;20054;-55
2023/01/04 09:23:30;;;;;;;7.78;1.60;;;;;;;11.71;79.33;99595.56;4998089;28;20749;-54
2023/01/04 09:25:57;;;;;;;9.95;1.65;;;;;;;11.79;78.75;99603.25;4989543;28;20600;-54
2023/01/04 09:28:23;;;;;;;6.20;0.93;;;;;;;11.87;78.73;99595.34;4987079;28;20043;-54
2023/01/04 09:30:50;;;;;;;12.23;1.48;;;;;;;11.95;78.42;99603.84;4984917;28;20050;-54
2023/01/04 09:33:16;;;;;;;6.20;1.23;;;;;;;11.93;79.22;99590.06;4988174;28;20681;-55
2023/01/04 09:35:43;;;;;;;12.75;1.13;;;;;;;11.94;77.92;99602.16;4986988;28;20067;-53
2023/01/04 09:38:10;;;;;;;16.80;1.13;;;;;;;11.90;77.54;99588.38;4988656;28;20128;-53
2023/01/04 09:40:53;;;;;;;10.75;1.20;;;;;;;11.86;77.61;99588.44;4988029;28;20038;-53
2023/01/04 09:43:22;;;;;;;10.55;1.75;;;;;;;11.93;78.66;99590.06;4985920;28;20513;-56
2023/01/04 09:45:53;;;;;;;12.07;1.92;;;;;;;11.97;77.73;99596.91;5001526;28;20042;-56
2023/01/04 09:48:26;;;;;;;8.07;1.33;;;;;;;12.00;77.15;99603.78;4979776;28;20045;-54
2023/01/04 09:50:58;;;;;;;11.43;2.28;;;;;;;12.11;76.94;99601.06;4992207;28;20121;-55
2023/01/04 09:56:13;;;;;;;15.20;1.75;;;;;;;12.30;76.21;99599.84;5024345;28;20417;-55
2023/01/04 09:58:41;;;;;;;13.07;1.45;;;;;;;12.46;76.95;99609.97;4997584;28;20488;-55
2023/01/04 10:01:30;;;;;;;9.45;1.20;;;;;;;12.68;75.59;99633.00;5001658;28;20046;-55
2023/01/04 10:06:35;;;;;;;12.43;2.20;;;;;;;13.11;74.99;99634.75;5120101;27;20407;-54
2023/01/04 10:09:09;;;;;;;8.88;2.20;;;;;;;13.18;74.60;99652.84;5058196;27;20041;-55
2023/01/04 10:14:43;;;;;;;7.78;0.95;;;;;;;13.27;73.70;99644.84;5023955;28;20406;-55
2023/01/04 10:20:22;;;;;;;11.88;1.20;;;;;;;13.14;73.78;99666.81;5095673;27;20417;-57
2023/01/04 10:26:33;;;;;;;14.02;3.08;;;;;;;12.92;72.53;99669.81;5114934;27;20401;-55
2023/01/04 10:32:11;;;;;;;14.27;0.88;;;;;;;12.74;73.64;99677.06;5023114;28;20391;-54
2023/01/04 10:34:41;;;;;;;6.47;0.93;;;;;;;12.70;72.91;99671.03;5000094;28;20038;-56
2023/01/04 10:37:20;;;;;;;9.05;1.60;;;;;;;12.65;73.42;99666.81;5003945;28;20069;-56
2023/01/04 10:39:53;;;;;;;8.18;1.48;;;;;;;12.63;73.10;99671.19;5018942;28;20089;-57
2023/01/04 10:42:32;;;;;;;16.50;1.58;;;;;;;12.57;73.39;99672.16;4999279;28;20065;-57
2023/01/04 10:48:04;;;;;;;14.15;2.28;;;;;;;12.88;71.77;99678.53;5030899;28;20414;-56
2023/01/04 10:50:43;;;;;;;9.48;2.45;;;;;;;12.85;72.67;99669.94;5022284;28;20087;-57
2023/01/04 10:53:20;;;;;;;12.80;2.92;;;;;;;12.92;72.71;99665.47;5023423;28;20076;-55
2023/01/04 10:56:11;;;;;;;19.67;2.63;;;;;;;12.92;73.26;99682.78;5021792;28;21049;-54
2023/01/04 11:02:05;;;;;;;11.88;0.93;;;;;;;12.90;72.75;99692.38;5066560;27;20412;-54
2023/01/04 11:04:48;;;;;;;10.82;1.33;;;;;;;12.85;73.22;99675.13;5057337;28;20140;-55
2023/01/04 11:07:20;;;;;;;8.95;1.40;;;;;;;12.81;73.52;99678.66;5053733;28;20618;-54
2023/01/04 11:09:56;;;;;;;9.70;1.63;;;;;;;12.72;72.62;99681.41;5058821;28;20076;-56
2023/01/04 11:12:23;;;;;;;14.38;1.25;;;;;;;12.65;73.05;99679.81;5058300;28;20608;-56
2023/01/04 11:14:50;;;;;;;12.85;2.33;;;;;;;12.62;73.10;99687.66;5061398;28;20079;-55
2023/01/04 11:17:20;;;;;;;9.88;1.00;;;;;;;12.56;72.82;99684.28;5054689;28;20095;-53
2023/01/04 11:19:47;;;;;;;9.90;1.38;;;;;;;12.51;73.94;99680.91;5057444;28;20114;-56
2023/01/04 11:22:23;;;;;;;14.43;1.30;;;;;;;12.46;73.84;99685.31;5055082;28;20707;-55
2023/01/04 11:24:53;;;;;;;;;;;;;;;12.33;73.67;99688.09;5055579;28;20056;-56
2023/01/04 11:27:53;;;;;;;10.55;1.77;;;;;;;12.31;74.34;99695.09;5059424;28;19920;-55
2023/01/04 11:30:23;;;;;;;10.63;1.05;;;;;;;12.28;74.74;99691.66;5054827;28;20102;-54
2023/01/04 11:33:02;;;;;;;7.20;0.85;;;;;;;12.19;74.00;99695.25;5055007;28;20052;-54
2023/01/04 11:35:39;;;;;;;7.93;1.10;;;;;;;12.12;74.47;99691.06;5054693;28;20057;-55
2023/01/04 11:38:12;;;;;;;9.63;1.83;;;;;;;12.07;75.38;99686.78;5054893;28;20049;-54
2023/01/04 11:40:40;;;;;;;14.55;1.90;;;;;;;12.05;75.51;99683.31;5055898;28;20132;-55
2023/01/04 11:43:17;;;;;;;12.77;2.13;;;;;;;12.03;75.19;99685.06;5058061;28;20680;-54
2023/01/04 11:45:57;;;;;;;8.43;1.10;;;;;;;11.97;76.50;99677.38;5056785;28;20441;-55
2023/01/04 11:48:41;;;;;;;14.63;2.10;;;;;;;11.94;77.16;99687.78;5056133;28;20052;-55
2023/01/04 11:51:17;;;;;;;7.53;1.35;;;;;;;11.90;76.60;99686.13;5051747;28;20566;-56
2023/01/04 11:53:45;;;;;;;12.70;1.90;;;;;;;11.89;77.52;99681.81;5051398;28;20056;-55
2023/01/04 11:59:14;;;;;;;13.60;1.85;;;;;;;11.77;77.92;99673.34;5042282;28;20398;-55
2023/01/04 12:02:08;;;;;;;15.60;1.90;;;;;;;11.84;77.16;99671.50;5019981;28;20042;-54
2023/01/04 12:04:35;;;;;;;15.63;2.15;;;;;;;11.88;78.08;99665.38;5020935;28;20042;-54
2023/01/04 12:07:10;;;;;;;13.18;1.02;;;;;;;11.95;78.00;99661.81;5026360;28;20160;-54
2023/01/04 12:09:36;;;;;;;9.20;1.42;;;;;;;12.05;78.32;99652.16;5027802;28;20137;-54
2023/01/04 12:12:04;;;;;;;10.88;1.75;;;;;;;12.12;77.77;99649.50;5024328;28;20088;-54
2023/01/04 12:14:39;;;;;;;13.65;1.80;;;;;;;12.18;78.04;99654.59;5022074;28;20057;-53
2023/01/04 12:17:30;;;;;;;17.90;2.63;;;;;;;12.23;77.87;99647.59;5013745;28;20107;-54
2023/01/04 12:20:02;;;;;;;16.77;1.58;;;;;;;12.37;77.31;99643.91;5012197;28;20069;-54
2023/01/04 12:25:22;;;;;;;10.45;1.75;;;;;;;12.51;77.60;99644.53;5050793;27;20389;-55
2023/01/04 12:27:50;;;;;;;7.90;1.92;;;;;;;12.53;77.62;99640.16;5002075;28;20077;-53
2023/01/04 12:30:40;;;;;;;5.55;1.10;;;;;;;12.47;76.55;99646.31;5002996;28;20104;-54
2023/01/04 12:39:01;;;;;;;4.43;1.23;;;;;;;12.44;74.67;99649.00;5046147;28;20919;-55
2023/01/04 12:52:47;;;;;;;6.88;1.65;;;;;;;12.50;74.38;99648.00;5051617;28;20404;-52
2023/01/04 13:01:09;;;;;;;6.50;1.30;;;;;;;12.60;73.99;99643.53;5051332;28;20393;-54
2023/01/04 13:03:46;;;;;;;8.77;1.08;;;;;;;12.63;74.38;99658.22;5019758;28;20056;-54
2023/01/04 13:06:19;;;;;;;6.65;1.20;;;;;;;12.64;73.06;99649.53;5019701;28;20532;-53
2023/01/04 13:08:48;;;;;;;7.38;1.30;;;;;;;12.60;73.11;99667.75;5020568;28;20057;-55
2023/01/04 13:11:34;;;;;;;9.85;1.65;;;;;;;12.56;73.79;99663.50;5018609;28;20050;-53
2023/01/04 13:14:10;;;;;;;11.57;1.65;;;;;;;12.60;73.02;99679.91;5015545;28;20877;-56
2023/01/04 13:17:15;;;;;;;6.88;2.47;;;;;;;12.53;73.36;99676.53;5015290;28;20470;-51
2023/01/04 13:19:42;;;;;;;6.65;0.95;;;;;;;12.52;72.72;99680.03;5012345;28;20743;-53
2023/01/04 13:22:32;;;;;;;6.03;1.02;;;;;;;12.52;73.03;99682.63;5021699;28;20115;-54
2023/01/04 13:25:01;;;;;;;7.70;1.15;;;;;;;12.52;73.20;99674.81;5018506;28;20081;-54
2023/01/04 13:27:28;;;;;;;9.77;1.75;;;;;;;12.51;72.20;99670.53;5017751;28;20566;-54
2023/01/04 13:29:55;;;;;;;7.80;1.02;;;;;;;12.52;72.26;99684.34;5020539;28;20571;-54
2023/01/04 13:32:27;;;;;;;8.25;1.00;;;;;;;12.49;71.75;99666.25;5020086;28;20065;-55
2023/01/04 13:37:34;;;;;;;5.10;2.20;;;;;;;12.42;72.34;99670.66;5009420;28;20407;-53
2023/01/04 13:42:41;;;;;;;9.95;1.73;;;;;;;12.72;71.68;99676.22;5112791;27;20382;-54
2023/01/04 13:47:56;;;;;;;8.52;0.80;;;;;;;12.46;72.21;99677.50;4994771;28;20397;-55
2023/01/04 13:52:59;;;;;;;5.68;0.57;;;;;;;12.47;72.78;99679.25;5028463;28;20392;-53
2023/01/04 13:55:36;;;;;;;5.32;1.08;;;;;;;12.49;72.34;99674.88;4998638;28;20046;-54
2023/01/04 13:58:06;;;;;;;5.88;0.85;;;;;;;12.52;71.87;99673.97;4999470;28;20556;-55
2023/01/04 14:00:35;;;;;;;;;;;;;;;12.36;70.98;99671.63;4997194;28;20786;-55
2023/01/04 14:06:14;;;;;;;8.38;2.58;;;;;;;12.33;71.04;99656.94;5016370;27;20404;-57
2023/01/04 14:13:58;;;;;;;10.88;1.95;;;;;;;12.62;69.78;99669.47;5038896;27;20403;-56
2023/01/04 14:16:24;;;;;;;9.32;2.20;;;;;;;12.40;71.07;99656.84;5014645;28;20050;-56
2023/01/04 14:18:51;;;;;;;9.82;2.67;;;;;;;12.33;71.47;99656.09;5022803;28;20065;-55
2023/01/04 14:21:18;;;;;;;12.57;3.20;;;;;;;12.29;70.75;99655.28;5020646;28;20104;-53
2023/01/04 14:23:44;;;;;;;8.50;1.98;;;;;;;12.26;71.37;99665.72;5019408;28;20138;-50
2023/01/04 14:26:32;;;;;;;11.43;1.00;;;;;;;12.19;71.28;99674.47;5019442;28;20158;-55
2023/01/04 14:29:20;;;;;;;8.27;1.88;;;;;;;12.16;71.15;99653.78;5019576;28;20044;-54
2023/01/04 14:31:49;;;;;;;8.05;1.70;;;;;;;12.19;71.54;99664.09;5006861;28;20065;-56
2023/01/04 14:34:15;;;;;;;9.70;1.95;;;;;;;12.15;71.09;99672.81;5017760;28;20058;-55
2023/01/04 14:36:42;;;;;;;11.00;2.38;;;;;;;12.12;71.79;99678.06;5019071;28;20045;-56